sensor_id;sensor_type;location;lat;lon;timestamp;pressure;altitude;pressure_sealevel;temperature;humidity
30714;BME280;17465;47.934;33.430;2023-12-20T00:00:54;57366.44;;;-140.43;100.00
30714;BME280;17465;47.934;33.430;2023-12-20T00:03:25;57403.51;;;-140.43;100.00
30714;BME280;17465;47.934;33.430;2023-12-20T00:05:56;57403.51;;;-140.43;100.00
30714;BME280;17465;47.934;33.430;2023-12-20T00:08:27;57407.74;;;-140.43;100.00
30714;BME280;17465;47.934;33.430;2023-12-20T00:10:57;57405.62;;;-140.43;100.00
30714;BME280;17465;47.934;33.430;2023-12-20T00:13:27;57425.75;;;-140.43;100.00
30714;BME280;17465;47.934;33.430;2023-12-20T00:15:58;57410.92;;;-140.43;100.00
30714;BME280;17465;47.934;33.430;2023-12-20T00:18:28;57410.92;;;-140.43;100.00
30714;BME280;17465;47.934;33.430;2023-12-20T00:20:59;57398.21;;;-140.43;100.00
30714;BME280;17465;47.934;33.430;2023-12-20T00:23:29;57398.21;;;-140.43;100.00
30714;BME280;17465;47.934;33.430;2023-12-20T00:25:59;57388.68;;;-140.43;100.00
30714;BME280;17465;47.934;33.430;2023-12-20T00:28:30;57410.92;;;-140.43;100.00
30714;BME280;17465;47.934;33.430;2023-12-20T00:31:00;57418.33;;;-140.43;100.00
30714;BME280;17465;47.934;33.430;2023-12-20T00:33:30;57385.50;;;-140.43;100.00
30714;BME280;17465;47.934;33.430;2023-12-20T00:36:01;57400.33;;;-140.43;100.00
30714;BME280;17465;47.934;33.430;2023-12-20T00:38:32;57402.45;;;-140.43;100.00
30714;BME280;17465;47.934;33.430;2023-12-20T00:41:02;57366.44;;;-140.43;100.00
30714;BME280;17465;47.934;33.430;2023-12-20T00:43:32;57409.86;;;-140.43;100.00
30714;BME280;17465;47.934;33.430;2023-12-20T00:46:03;57387.62;;;-140.43;100.00
30714;BME280;17465;47.934;33.430;2023-12-20T00:48:33;57400.33;;;-140.43;100.00
30714;BME280;17465;47.934;33.430;2023-12-20T00:51:03;57386.56;;;-140.43;100.00
30714;BME280;17465;47.934;33.430;2023-12-20T00:53:34;57404.57;;;-140.43;100.00
30714;BME280;17465;47.934;33.430;2023-12-20T00:56:04;57404.57;;;-140.43;100.00
30714;BME280;17465;47.934;33.430;2023-12-20T00:58:34;57370.68;;;-140.43;100.00
30714;BME280;17465;47.934;33.430;2023-12-20T01:01:04;57370.68;;;-140.43;100.00
30714;BME280;17465;47.934;33.430;2023-12-20T01:03:35;57390.80;;;-140.43;100.00
30714;BME280;17465;47.934;33.430;2023-12-20T01:06:05;57390.80;;;-140.43;100.00
30714;BME280;17465;47.934;33.430;2023-12-20T01:08:37;57367.50;;;-140.43;100.00
30714;BME280;17465;47.934;33.430;2023-12-20T01:11:08;57393.98;;;-140.43;100.00
30714;BME280;17465;47.934;33.430;2023-12-20T01:13:41;57377.03;;;-140.43;100.00
30714;BME280;17465;47.934;33.430;2023-12-20T01:16:24;57403.51;;;-140.43;100.00
30714;BME280;17465;47.934;33.430;2023-12-20T01:18:54;57419.39;;;-140.43;100.00
30714;BME280;17465;47.934;33.430;2023-12-20T01:21:26;57418.33;;;-140.43;100.00
30714;BME280;17465;47.934;33.430;2023-12-20T01:23:56;57403.51;;;-140.43;100.00
30714;BME280;17465;47.934;33.430;2023-12-20T01:26:35;57387.62;;;-140.43;100.00
30714;BME280;17465;47.934;33.430;2023-12-20T01:29:25;57414.10;;;-140.43;100.00
30714;BME280;17465;47.934;33.430;2023-12-20T01:32:31;57411.98;;;-140.43;100.00
30714;BME280;17465;47.934;33.430;2023-12-20T01:35:08;57380.21;;;-140.43;100.00
30714;BME280;17465;47.934;33.430;2023-12-20T01:37:43;57387.62;;;-140.43;100.00
30714;BME280;17465;47.934;33.430;2023-12-20T01:40:19;57414.10;;;-140.43;100.00
30714;BME280;17465;47.934;33.430;2023-12-20T01:43:09;57380.21;;;-140.43;100.00
30714;BME280;17465;47.934;33.430;2023-12-20T01:45:40;57423.63;;;-140.43;100.00
30714;BME280;17465;47.934;33.430;2023-12-20T01:48:11;57396.09;;;-140.43;100.00
30714;BME280;17465;47.934;33.430;2023-12-20T01:50:42;57408.80;;;-140.43;100.00
30714;BME280;17465;47.934;33.430;2023-12-20T01:53:12;57418.33;;;-140.43;100.00
30714;BME280;17465;47.934;33.430;2023-12-20T01:55:44;57386.56;;;-140.43;100.00
30714;BME280;17465;47.934;33.430;2023-12-20T01:58:16;57388.68;;;-140.43;100.00
30714;BME280;17465;47.934;33.430;2023-12-20T02:00:47;57386.56;;;-140.43;100.00
30714;BME280;17465;47.934;33.430;2023-12-20T02:03:23;57409.86;;;-140.43;100.00
30714;BME280;17465;47.934;33.430;2023-12-20T02:05:50;57385.50;;;-140.43;100.00
30714;BME280;17465;47.934;33.430;2023-12-20T02:08:21;57390.80;;;-140.43;100.00
30714;BME280;17465;47.934;33.430;2023-12-20T02:10:51;57404.57;;;-140.43;100.00
30714;BME280;17465;47.934;33.430;2023-12-20T02:13:22;57391.86;;;-140.43;100.00
30714;BME280;17465;47.934;33.430;2023-12-20T02:15:52;57391.86;;;-140.43;100.00
30714;BME280;17465;47.934;33.430;2023-12-20T02:18:22;57390.80;;;-140.43;100.00
30714;BME280;17465;47.934;33.430;2023-12-20T02:20:53;57414.10;;;-140.43;100.00
30714;BME280;17465;47.934;33.430;2023-12-20T02:23:24;57411.98;;;-140.43;100.00
30714;BME280;17465;47.934;33.430;2023-12-20T02:25:54;57418.33;;;-140.43;100.00
30714;BME280;17465;47.934;33.430;2023-12-20T02:28:25;57407.74;;;-140.43;100.00
30714;BME280;17465;47.934;33.430;2023-12-20T02:30:55;57401.39;;;-140.43;100.00
30714;BME280;17465;47.934;33.430;2023-12-20T02:33:25;57389.74;;;-140.43;100.00
30714;BME280;17465;47.934;33.430;2023-12-20T02:35:55;57408.80;;;-140.43;100.00
30714;BME280;17465;47.934;33.430;2023-12-20T02:38:26;57380.21;;;-140.43;100.00
30714;BME280;17465;47.934;33.430;2023-12-20T02:40:56;57375.97;;;-140.43;100.00
30714;BME280;17465;47.934;33.430;2023-12-20T02:43:26;57375.97;;;-140.43;100.00
30714;BME280;17465;47.934;33.430;2023-12-20T02:45:57;57389.74;;;-140.43;100.00
30714;BME280;17465;47.934;33.430;2023-12-20T02:48:28;57407.74;;;-140.43;100.00
30714;BME280;17465;47.934;33.430;2023-12-20T02:50:58;57416.21;;;-140.43;100.00
30714;BME280;17465;47.934;33.430;2023-12-20T02:53:29;57419.39;;;-140.43;100.00
30714;BME280;17465;47.934;33.430;2023-12-20T02:55:59;57389.74;;;-140.43;100.00
30714;BME280;17465;47.934;33.430;2023-12-20T02:58:29;57389.74;;;-140.43;100.00
30714;BME280;17465;47.934;33.430;2023-12-20T03:00:59;57390.80;;;-140.43;100.00
30714;BME280;17465;47.934;33.430;2023-12-20T03:03:30;57414.10;;;-140.43;100.00
30714;BME280;17465;47.934;33.430;2023-12-20T03:06:01;57392.91;;;-140.43;100.00
30714;BME280;17465;47.934;33.430;2023-12-20T03:08:31;57386.56;;;-140.43;100.00
30714;BME280;17465;47.934;33.430;2023-12-20T03:11:02;57380.21;;;-140.43;100.00
30714;BME280;17465;47.934;33.430;2023-12-20T03:13:32;57400.33;;;-140.43;100.00
30714;BME280;17465;47.934;33.430;2023-12-20T03:16:13;57400.33;;;-140.43;100.00
30714;BME280;17465;47.934;33.430;2023-12-20T03:18:43;57406.68;;;-140.43;100.00
30714;BME280;17465;47.934;33.430;2023-12-20T03:21:13;57393.98;;;-140.43;100.00
30714;BME280;17465;47.934;33.430;2023-12-20T03:23:44;57399.27;;;-140.43;100.00
30714;BME280;17465;47.934;33.430;2023-12-20T03:26:14;57408.80;;;-140.43;100.00
30714;BME280;17465;47.934;33.430;2023-12-20T03:28:45;57401.39;;;-140.43;100.00
30714;BME280;17465;47.934;33.430;2023-12-20T03:31:15;57387.62;;;-140.43;100.00
30714;BME280;17465;47.934;33.430;2023-12-20T03:33:45;57387.62;;;-140.43;100.00
30714;BME280;17465;47.934;33.430;2023-12-20T03:36:15;57422.57;;;-140.43;100.00
30714;BME280;17465;47.934;33.430;2023-12-20T03:38:46;57397.15;;;-140.43;100.00
30714;BME280;17465;47.934;33.430;2023-12-20T03:41:18;57399.27;;;-140.43;100.00
30714;BME280;17465;47.934;33.430;2023-12-20T03:43:48;57399.27;;;-140.43;100.00
30714;BME280;17465;47.934;33.430;2023-12-20T03:46:18;57403.51;;;-140.43;100.00
30714;BME280;17465;47.934;33.430;2023-12-20T03:48:49;57405.62;;;-140.43;100.00
30714;BME280;17465;47.934;33.430;2023-12-20T03:51:19;57399.27;;;-140.43;100.00
30714;BME280;17465;47.934;33.430;2023-12-20T03:53:49;57399.27;;;-140.43;100.00
30714;BME280;17465;47.934;33.430;2023-12-20T03:56:19;57384.44;;;-140.43;100.00
30714;BME280;17465;47.934;33.430;2023-12-20T03:58:50;57391.86;;;-140.43;100.00
30714;BME280;17465;47.934;33.430;2023-12-20T04:01:20;57375.97;;;-140.43;100.00
30714;BME280;17465;47.934;33.430;2023-12-20T04:03:50;57397.15;;;-140.43;100.00
30714;BME280;17465;47.934;33.430;2023-12-20T04:06:20;57397.15;;;-140.43;100.00
30714;BME280;17465;47.934;33.430;2023-12-20T04:08:53;57373.85;;;-140.43;100.00
30714;BME280;17465;47.934;33.430;2023-12-20T04:11:23;57417.27;;;-140.43;100.00
30714;BME280;17465;47.934;33.430;2023-12-20T04:13:54;57404.57;;;-140.43;100.00
30714;BME280;17465;47.934;33.430;2023-12-20T04:16:27;57404.57;;;-140.43;100.00
30714;BME280;17465;47.934;33.430;2023-12-20T04:18:58;57403.51;;;-140.43;100.00
30714;BME280;17465;47.934;33.430;2023-12-20T04:21:28;57403.51;;;-140.43;100.00
30714;BME280;17465;47.934;33.430;2023-12-20T04:23:58;57411.98;;;-140.43;100.00
30714;BME280;17465;47.934;33.430;2023-12-20T04:26:29;57360.08;;;-140.43;100.00
30714;BME280;17465;47.934;33.430;2023-12-20T04:28:59;57398.21;;;-140.43;100.00
30714;BME280;17465;47.934;33.430;2023-12-20T04:31:29;57375.97;;;-140.43;100.00
30714;BME280;17465;47.934;33.430;2023-12-20T04:34:00;57398.21;;;-140.43;100.00
30714;BME280;17465;47.934;33.430;2023-12-20T04:36:31;57378.09;;;-140.43;100.00
30714;BME280;17465;47.934;33.430;2023-12-20T04:39:03;57377.03;;;-140.43;100.00
30714;BME280;17465;47.934;33.430;2023-12-20T04:41:33;57380.21;;;-140.43;100.00
30714;BME280;17465;47.934;33.430;2023-12-20T04:44:03;57388.68;;;-140.43;100.00
30714;BME280;17465;47.934;33.430;2023-12-20T04:46:34;57367.50;;;-140.43;100.00
30714;BME280;17465;47.934;33.430;2023-12-20T04:49:04;57389.74;;;-140.43;100.00
30714;BME280;17465;47.934;33.430;2023-12-20T04:51:36;57379.15;;;-140.43;100.00
30714;BME280;17465;47.934;33.430;2023-12-20T04:54:06;57377.03;;;-140.43;100.00
30714;BME280;17465;47.934;33.430;2023-12-20T04:56:36;57377.03;;;-140.43;100.00
30714;BME280;17465;47.934;33.430;2023-12-20T04:59:07;57399.27;;;-140.43;100.00
30714;BME280;17465;47.934;33.430;2023-12-20T05:01:38;57399.27;;;-140.43;100.00
30714;BME280;17465;47.934;33.430;2023-12-20T05:04:08;57392.91;;;-140.43;100.00
30714;BME280;17465;47.934;33.430;2023-12-20T05:06:39;57396.09;;;-140.43;100.00
30714;BME280;17465;47.934;33.430;2023-12-20T05:09:11;57396.09;;;-140.43;100.00
30714;BME280;17465;47.934;33.430;2023-12-20T05:11:51;57403.51;;;-140.43;100.00
30714;BME280;17465;47.934;33.430;2023-12-20T05:15:09;57387.62;;;-140.43;100.00
30714;BME280;17465;47.934;33.430;2023-12-20T05:18:01;57377.03;;;-140.43;100.00
30714;BME280;17465;47.934;33.430;2023-12-20T05:20:35;57389.74;;;-140.43;100.00
30714;BME280;17465;47.934;33.430;2023-12-20T05:23:05;57389.74;;;-140.43;100.00
30714;BME280;17465;47.934;33.430;2023-12-20T05:25:36;57408.80;;;-140.43;100.00
30714;BME280;17465;47.934;33.430;2023-12-20T05:28:06;57408.80;;;-140.43;100.00
30714;BME280;17465;47.934;33.430;2023-12-20T05:30:36;57399.27;;;-140.43;100.00
30714;BME280;17465;47.934;33.430;2023-12-20T05:33:06;57399.27;;;-140.43;100.00
30714;BME280;17465;47.934;33.430;2023-12-20T05:35:37;57401.39;;;-140.43;100.00
30714;BME280;17465;47.934;33.430;2023-12-20T05:38:07;57389.74;;;-140.43;100.00
30714;BME280;17465;47.934;33.430;2023-12-20T05:40:37;57363.26;;;-140.43;100.00
30714;BME280;17465;47.934;33.430;2023-12-20T05:43:07;57383.38;;;-140.43;100.00
30714;BME280;17465;47.934;33.430;2023-12-20T05:45:37;57391.86;;;-140.43;100.00
30714;BME280;17465;47.934;33.430;2023-12-20T05:48:08;57385.50;;;-140.43;100.00
30714;BME280;17465;47.934;33.430;2023-12-20T05:50:38;57375.97;;;-140.43;100.00
30714;BME280;17465;47.934;33.430;2023-12-20T05:53:08;57386.56;;;-140.43;100.00
30714;BME280;17465;47.934;33.430;2023-12-20T05:55:38;57370.68;;;-140.43;100.00
30714;BME280;17465;47.934;33.430;2023-12-20T05:58:09;57397.15;;;-140.43;100.00
30714;BME280;17465;47.934;33.430;2023-12-20T06:00:39;57372.79;;;-140.43;100.00
30714;BME280;17465;47.934;33.430;2023-12-20T06:03:09;57372.79;;;-140.43;100.00
30714;BME280;17465;47.934;33.430;2023-12-20T06:05:39;57397.15;;;-140.43;100.00
30714;BME280;17465;47.934;33.430;2023-12-20T06:08:09;57382.32;;;-140.43;100.00
30714;BME280;17465;47.934;33.430;2023-12-20T06:10:40;57386.56;;;-140.43;100.00
30714;BME280;17465;47.934;33.430;2023-12-20T06:13:10;57374.91;;;-140.43;100.00
30714;BME280;17465;47.934;33.430;2023-12-20T06:15:40;57374.91;;;-140.43;100.00
30714;BME280;17465;47.934;33.430;2023-12-20T06:18:11;57372.79;;;-140.43;100.00
30714;BME280;17465;47.934;33.430;2023-12-20T06:20:41;57351.61;;;-140.43;100.00
30714;BME280;17465;47.934;33.430;2023-12-20T06:23:11;57373.85;;;-140.43;100.00
30714;BME280;17465;47.934;33.430;2023-12-20T06:25:41;57383.38;;;-140.43;100.00
30714;BME280;17465;47.934;33.430;2023-12-20T06:28:12;57399.27;;;-140.43;100.00
30714;BME280;17465;47.934;33.430;2023-12-20T06:30:42;57371.73;;;-140.43;100.00
30714;BME280;17465;47.934;33.430;2023-12-20T06:33:12;57384.44;;;-140.43;100.00
30714;BME280;17465;47.934;33.430;2023-12-20T06:35:43;57384.44;;;-140.43;100.00
30714;BME280;17465;47.934;33.430;2023-12-20T06:38:13;57409.86;;;-140.43;100.00
30714;BME280;17465;47.934;33.430;2023-12-20T06:40:44;57355.85;;;-140.43;100.00
30714;BME280;17465;47.934;33.430;2023-12-20T06:43:14;57380.21;;;-140.43;100.00
30714;BME280;17465;47.934;33.430;2023-12-20T06:45:46;57396.09;;;-140.43;100.00
30714;BME280;17465;47.934;33.430;2023-12-20T06:48:16;57374.91;;;-140.43;100.00
30714;BME280;17465;47.934;33.430;2023-12-20T06:50:48;57362.20;;;-140.43;100.00
30714;BME280;17465;47.934;33.430;2023-12-20T06:53:18;57378.09;;;-140.43;100.00
30714;BME280;17465;47.934;33.430;2023-12-20T06:55:49;57378.09;;;-140.43;100.00
30714;BME280;17465;47.934;33.430;2023-12-20T06:58:19;57378.09;;;-140.43;100.00
30714;BME280;17465;47.934;33.430;2023-12-20T07:00:50;57371.73;;;-140.43;100.00
30714;BME280;17465;47.934;33.430;2023-12-20T07:03:20;57397.15;;;-140.43;100.00
30714;BME280;17465;47.934;33.430;2023-12-20T07:05:50;57384.44;;;-140.43;100.00
30714;BME280;17465;47.934;33.430;2023-12-20T07:08:21;57380.21;;;-140.43;100.00
30714;BME280;17465;47.934;33.430;2023-12-20T07:10:51;57362.20;;;-140.43;100.00
30714;BME280;17465;47.934;33.430;2023-12-20T07:13:22;57381.27;;;-140.43;100.00
30714;BME280;17465;47.934;33.430;2023-12-20T07:15:52;57399.27;;;-140.43;100.00
30714;BME280;17465;47.934;33.430;2023-12-20T07:18:22;57382.32;;;-140.43;100.00
30714;BME280;17465;47.934;33.430;2023-12-20T07:20:52;57382.32;;;-140.43;100.00
30714;BME280;17465;47.934;33.430;2023-12-20T07:23:22;57374.91;;;-140.43;100.00
30714;BME280;17465;47.934;33.430;2023-12-20T07:25:53;57375.97;;;-140.43;100.00
30714;BME280;17465;47.934;33.430;2023-12-20T07:28:23;57375.97;;;-140.43;100.00
30714;BME280;17465;47.934;33.430;2023-12-20T07:30:53;57366.44;;;-140.43;100.00
30714;BME280;17465;47.934;33.430;2023-12-20T07:33:23;57385.50;;;-140.43;100.00
30714;BME280;17465;47.934;33.430;2023-12-20T07:35:53;57390.80;;;-140.43;100.00
30714;BME280;17465;47.934;33.430;2023-12-20T07:38:24;57396.09;;;-140.43;100.00
30714;BME280;17465;47.934;33.430;2023-12-20T07:40:54;57390.80;;;-140.43;100.00
30714;BME280;17465;47.934;33.430;2023-12-20T07:43:25;57368.55;;;-140.43;100.00
30714;BME280;17465;47.934;33.430;2023-12-20T07:45:55;57381.27;;;-140.43;100.00
30714;BME280;17465;47.934;33.430;2023-12-20T07:48:25;57375.97;;;-140.43;100.00
30714;BME280;17465;47.934;33.430;2023-12-20T07:50:56;57388.68;;;-140.43;100.00
30714;BME280;17465;47.934;33.430;2023-12-20T07:56:18;57367.50;;;-140.43;100.00
30714;BME280;17465;47.934;33.430;2023-12-20T07:58:49;57387.62;;;-140.43;100.00
30714;BME280;17465;47.934;33.430;2023-12-20T08:01:21;57397.15;;;-140.43;100.00
30714;BME280;17465;47.934;33.430;2023-12-20T08:03:52;57368.55;;;-140.43;100.00
30714;BME280;17465;47.934;33.430;2023-12-20T08:06:23;57375.97;;;-140.43;100.00
30714;BME280;17465;47.934;33.430;2023-12-20T08:08:54;57370.68;;;-140.43;100.00
30714;BME280;17465;47.934;33.430;2023-12-20T08:11:27;57364.32;;;-140.43;100.00
30714;BME280;17465;47.934;33.430;2023-12-20T08:13:58;57365.38;;;-140.43;100.00
30714;BME280;17465;47.934;33.430;2023-12-20T08:16:28;57380.21;;;-140.43;100.00
30714;BME280;17465;47.934;33.430;2023-12-20T08:18:59;57397.15;;;-140.43;100.00
30714;BME280;17465;47.934;33.430;2023-12-20T08:21:29;57347.38;;;-140.43;100.00
30714;BME280;17465;47.934;33.430;2023-12-20T08:24:04;57367.50;;;-140.43;100.00
30714;BME280;17465;47.934;33.430;2023-12-20T08:26:34;57367.50;;;-140.43;100.00
30714;BME280;17465;47.934;33.430;2023-12-20T08:29:05;57380.21;;;-140.43;99.98
30714;BME280;17465;47.934;33.430;2023-12-20T08:31:35;57380.21;;;-140.43;99.98
30714;BME280;17465;47.934;33.430;2023-12-20T08:34:06;57391.86;;;-140.43;98.86
30714;BME280;17465;47.934;33.430;2023-12-20T08:36:39;57398.21;;;-140.43;98.82
30714;BME280;17465;47.934;33.430;2023-12-20T08:39:11;57374.91;;;-140.43;98.52
30714;BME280;17465;47.934;33.430;2023-12-20T08:41:42;57385.50;;;-140.43;99.03
30714;BME280;17465;47.934;33.430;2023-12-20T08:44:12;57388.68;;;-140.43;98.85
30714;BME280;17465;47.934;33.430;2023-12-20T08:46:42;57380.21;;;-140.43;99.60
30714;BME280;17465;47.934;33.430;2023-12-20T08:49:15;57377.03;;;-140.43;99.47
30714;BME280;17465;47.934;33.430;2023-12-20T08:51:45;57372.79;;;-140.43;99.10
30714;BME280;17465;47.934;33.430;2023-12-20T08:54:18;57388.68;;;-140.43;99.85
30714;BME280;17465;47.934;33.430;2023-12-20T08:56:48;57357.96;;;-140.43;99.49
30714;BME280;17465;47.934;33.430;2023-12-20T08:59:19;57357.96;;;-140.43;99.49
30714;BME280;17465;47.934;33.430;2023-12-20T09:01:56;57366.44;;;-140.43;99.94
30714;BME280;17465;47.934;33.430;2023-12-20T09:04:41;57377.03;;;-140.43;98.32
30714;BME280;17465;47.934;33.430;2023-12-20T09:07:24;57386.56;;;-140.43;98.24
30714;BME280;17465;47.934;33.430;2023-12-20T09:09:57;57386.56;;;-140.43;98.24
30714;BME280;17465;47.934;33.430;2023-12-20T09:12:27;57373.85;;;-140.43;97.39
30714;BME280;17465;47.934;33.430;2023-12-20T09:14:58;57365.38;;;-140.43;97.49
30714;BME280;17465;47.934;33.430;2023-12-20T09:17:28;57388.68;;;-140.43;97.37
30714;BME280;17465;47.934;33.430;2023-12-20T09:19:58;57391.86;;;-140.43;96.76
30714;BME280;17465;47.934;33.430;2023-12-20T09:22:29;57368.55;;;-140.43;97.32
30714;BME280;17465;47.934;33.430;2023-12-20T09:24:59;57368.55;;;-140.43;97.32
30714;BME280;17465;47.934;33.430;2023-12-20T09:27:30;57370.68;;;-140.43;97.38
30714;BME280;17465;47.934;33.430;2023-12-20T09:30:00;57369.62;;;-140.43;96.45
30714;BME280;17465;47.934;33.430;2023-12-20T09:32:31;57383.38;;;-140.43;95.94
30714;BME280;17465;47.934;33.430;2023-12-20T09:35:09;57377.03;;;-140.43;95.85
30714;BME280;17465;47.934;33.430;2023-12-20T09:37:39;57373.85;;;-140.43;96.57
30714;BME280;17465;47.934;33.430;2023-12-20T09:40:22;57380.21;;;-140.43;96.53
30714;BME280;17465;47.934;33.430;2023-12-20T09:43:04;57380.21;;;-140.43;96.53
30714;BME280;17465;47.934;33.430;2023-12-20T09:45:36;57389.74;;;-140.43;96.62
30714;BME280;17465;47.934;33.430;2023-12-20T09:48:10;57354.79;;;-140.43;96.62
30714;BME280;17465;47.934;33.430;2023-12-20T09:50:44;57362.20;;;-140.43;95.84
30714;BME280;17465;47.934;33.430;2023-12-20T09:53:20;57383.38;;;-140.43;95.54
30714;BME280;17465;47.934;33.430;2023-12-20T09:55:51;57388.68;;;-140.43;95.36
30714;BME280;17465;47.934;33.430;2023-12-20T09:58:23;57370.68;;;-140.43;95.36
30714;BME280;17465;47.934;33.430;2023-12-20T10:00:57;57378.09;;;-140.43;95.31
30714;BME280;17465;47.934;33.430;2023-12-20T10:03:28;57384.44;;;-140.43;95.64
30714;BME280;17465;47.934;33.430;2023-12-20T10:06:01;57380.21;;;-140.43;96.34
30714;BME280;17465;47.934;33.430;2023-12-20T10:08:36;57380.21;;;-140.43;96.34
30714;BME280;17465;47.934;33.430;2023-12-20T10:11:07;57380.21;;;-140.43;95.57
30714;BME280;17465;47.934;33.430;2023-12-20T10:13:41;57352.67;;;-140.43;95.37
30714;BME280;17465;47.934;33.430;2023-12-20T10:16:11;57352.67;;;-140.43;95.37
30714;BME280;17465;47.934;33.430;2023-12-20T10:18:42;57350.55;;;-140.43;95.26
30714;BME280;17465;47.934;33.430;2023-12-20T10:21:12;57389.74;;;-140.43;95.36
30714;BME280;17465;47.934;33.430;2023-12-20T10:23:42;57392.91;;;-140.43;93.86
30714;BME280;17465;47.934;33.430;2023-12-20T10:26:28;57373.85;;;-140.43;93.21
30714;BME280;17465;47.934;33.430;2023-12-20T10:29:00;57373.85;;;-140.43;93.21
30714;BME280;17465;47.934;33.430;2023-12-20T10:31:32;57378.09;;;-140.43;93.76
30714;BME280;17465;47.934;33.430;2023-12-20T10:34:03;57380.21;;;-140.43;93.93
30714;BME280;17465;47.934;33.430;2023-12-20T10:36:33;57370.68;;;-140.43;93.10
30714;BME280;17465;47.934;33.430;2023-12-20T10:39:05;57390.80;;;-140.43;93.21
30714;BME280;17465;47.934;33.430;2023-12-20T10:41:37;57357.96;;;-140.43;93.15
30714;BME280;17465;47.934;33.430;2023-12-20T10:44:10;57380.21;;;-140.43;92.32
30714;BME280;17465;47.934;33.430;2023-12-20T10:46:41;57354.79;;;-140.43;92.15
30714;BME280;17465;47.934;33.430;2023-12-20T10:49:16;57381.27;;;-140.43;92.00
30714;BME280;17465;47.934;33.430;2023-12-20T10:51:48;57381.27;;;-140.43;92.00
30714;BME280;17465;47.934;33.430;2023-12-20T10:54:21;57367.50;;;-140.43;91.95
30714;BME280;17465;47.934;33.430;2023-12-20T10:56:53;57367.50;;;-140.43;91.95
30714;BME280;17465;47.934;33.430;2023-12-20T10:59:25;57380.21;;;-140.43;91.30
30714;BME280;17465;47.934;33.430;2023-12-20T11:01:59;57371.73;;;-140.43;91.37
30714;BME280;17465;47.934;33.430;2023-12-20T11:07:37;57395.03;;;-140.43;92.23
30714;BME280;17465;47.934;33.430;2023-12-20T11:10:31;57392.91;;;-140.43;92.71
30714;BME280;17465;47.934;33.430;2023-12-20T11:13:20;57373.85;;;-140.43;91.95
30714;BME280;17465;47.934;33.430;2023-12-20T11:15:44;57388.68;;;-140.43;92.30
30714;BME280;17465;47.934;33.430;2023-12-20T11:18:16;57352.67;;;-140.43;92.71
30714;BME280;17465;47.934;33.430;2023-12-20T11:21:05;57387.62;;;-140.43;92.04
30714;BME280;17465;47.934;33.430;2023-12-20T11:23:36;57387.62;;;-140.43;92.04
30714;BME280;17465;47.934;33.430;2023-12-20T11:26:07;57373.85;;;-140.43;91.53
30714;BME280;17465;47.934;33.430;2023-12-20T11:28:37;57386.56;;;-140.43;91.68
30714;BME280;17465;47.934;33.430;2023-12-20T11:31:08;57372.79;;;-140.43;91.94
30714;BME280;17465;47.934;33.430;2023-12-20T11:33:38;57372.79;;;-140.43;91.94
30714;BME280;17465;47.934;33.430;2023-12-20T11:36:24;57393.98;;;-140.43;92.22
30714;BME280;17465;47.934;33.430;2023-12-20T11:38:59;57355.85;;;-140.43;92.65
30714;BME280;17465;47.934;33.430;2023-12-20T11:41:29;57378.09;;;-140.43;91.15
30714;BME280;17465;47.934;33.430;2023-12-20T11:44:04;57372.79;;;-140.43;90.48
30714;BME280;17465;47.934;33.430;2023-12-20T11:46:35;57397.15;;;-140.43;90.57
30714;BME280;17465;47.934;33.430;2023-12-20T11:49:05;57378.09;;;-140.43;90.98
30714;BME280;17465;47.934;33.430;2023-12-20T11:51:40;57375.97;;;-140.43;91.22
30714;BME280;17465;47.934;33.430;2023-12-20T11:54:07;57375.97;;;-140.43;91.22
30714;BME280;17465;47.934;33.430;2023-12-20T11:56:41;57375.97;;;-140.43;91.70
30714;BME280;17465;47.934;33.430;2023-12-20T11:59:12;57387.62;;;-140.43;91.58
30714;BME280;17465;47.934;33.430;2023-12-20T12:01:50;57390.80;;;-140.43;90.21
30714;BME280;17465;47.934;33.430;2023-12-20T12:04:21;57387.62;;;-140.43;89.76
30714;BME280;17465;47.934;33.430;2023-12-20T12:06:57;57371.73;;;-140.43;90.08
30714;BME280;17465;47.934;33.430;2023-12-20T12:09:27;57403.51;;;-140.43;90.14
30714;BME280;17465;47.934;33.430;2023-12-20T12:11:57;57365.38;;;-140.43;90.21
30714;BME280;17465;47.934;33.430;2023-12-20T12:14:28;57389.74;;;-140.43;90.00
30714;BME280;17465;47.934;33.430;2023-12-20T12:16:58;57390.80;;;-140.43;89.73
30714;BME280;17465;47.934;33.430;2023-12-20T12:19:29;57365.38;;;-140.43;89.84
30714;BME280;17465;47.934;33.430;2023-12-20T12:24:43;57385.50;;;-140.43;90.16
30714;BME280;17465;47.934;33.430;2023-12-20T12:27:17;57396.09;;;-140.43;90.47
30714;BME280;17465;47.934;33.430;2023-12-20T12:30:03;57396.09;;;-140.43;90.47
30714;BME280;17465;47.934;33.430;2023-12-20T12:32:38;57372.79;;;-140.43;90.95
30714;BME280;17465;47.934;33.430;2023-12-20T12:35:11;57375.97;;;-140.43;90.39
30714;BME280;17465;47.934;33.430;2023-12-20T12:37:42;57377.03;;;-140.43;89.18
30714;BME280;17465;47.934;33.430;2023-12-20T12:40:18;57396.09;;;-140.43;89.20
30714;BME280;17465;47.934;33.430;2023-12-20T12:42:45;57365.38;;;-140.43;90.37
30714;BME280;17465;47.934;33.430;2023-12-20T12:45:16;57373.85;;;-140.43;89.32
30714;BME280;17465;47.934;33.430;2023-12-20T12:47:48;57400.33;;;-140.43;88.75
30714;BME280;17465;47.934;33.430;2023-12-20T12:50:21;57400.33;;;-140.43;88.75
30714;BME280;17465;47.934;33.430;2023-12-20T12:52:51;57369.62;;;-140.43;89.08
30714;BME280;17465;47.934;33.430;2023-12-20T12:55:21;57375.97;;;-140.43;89.42